createdAt,value
2023-01-20T00:00:09.353Z,151.77
2023-01-20T00:01:09.312Z,151.29
2023-01-20T00:02:09.297Z,152.90
2023-01-20T00:03:09.288Z,152.62
2023-01-20T00:04:09.259Z,153.42
2023-01-20T00:05:09.231Z,157.33
2023-01-20T00:06:09.229Z,152.50
2023-01-20T00:07:09.204Z,157.04
2023-01-20T00:08:09.208Z,152.86
2023-01-20T00:09:09.169Z,153.43
2023-01-20T00:10:09.162Z,153.55
2023-01-20T00:11:09.142Z,154.52
2023-01-20T00:12:09.134Z,155.84
2023-01-20T00:13:09.097Z,155.14
2023-01-20T00:14:09.096Z,152.42
2023-01-20T00:15:09.069Z,152.67
2023-01-20T00:16:09.151Z,152.92
2023-01-20T00:17:09.036Z,153.35
2023-01-20T00:18:09.015Z,154.97
2023-01-20T00:19:09.002Z,156.23
2023-01-20T00:20:09.009Z,155.52
2023-01-20T00:21:08.955Z,153.41
2023-01-20T00:22:08.941Z,151.99
2023-01-20T00:23:08.915Z,152.05
2023-01-20T00:24:08.908Z,155.82
2023-01-20T00:25:08.881Z,152.49
2023-01-20T00:26:08.858Z,153.59
2023-01-20T00:27:08.858Z,153.14
2023-01-20T00:28:08.833Z,151.67
2023-01-20T00:29:08.808Z,152.38
2023-01-20T00:30:08.782Z,151.88
2023-01-20T00:31:08.778Z,150.68
2023-01-20T00:32:08.756Z,152.48
2023-01-20T00:33:08.729Z,151.26
2023-01-20T00:34:08.702Z,151.51
2023-01-20T00:35:08.698Z,151.92
2023-01-20T00:36:08.688Z,151.64
2023-01-20T00:37:08.646Z,152.11
2023-01-20T00:38:08.631Z,152.28
2023-01-20T00:39:08.599Z,154.91
2023-01-20T00:40:08.584Z,152.87
2023-01-20T00:41:08.573Z,155.77
2023-01-20T00:42:08.547Z,153.34
2023-01-20T00:43:08.542Z,156.07
2023-01-20T00:44:08.503Z,153.71
2023-01-20T00:45:08.469Z,153.11
2023-01-20T00:46:08.524Z,153.67
2023-01-20T00:47:08.443Z,155.39
2023-01-20T00:48:08.418Z,153.86
2023-01-20T00:49:08.391Z,151.34
2023-01-20T00:50:08.373Z,154.54
2023-01-20T00:51:08.358Z,150.59
2023-01-20T00:52:08.329Z,153.22
2023-01-20T00:53:08.321Z,154.90
2023-01-20T00:54:08.291Z,154.59
2023-01-20T00:55:08.267Z,153.76
2023-01-20T00:56:08.248Z,154.22
2023-01-20T00:57:08.228Z,152.55
2023-01-20T00:58:08.220Z,151.44
2023-01-20T00:59:08.203Z,153.46
2023-01-20T01:00:08.185Z,153.09
2023-01-20T01:01:08.284Z,150.81
2023-01-20T01:02:08.278Z,152.54
2023-01-20T01:03:08.133Z,152.74
2023-01-20T01:04:08.143Z,153.05
2023-01-20T01:05:08.131Z,153.40
2023-01-20T01:06:08.111Z,152.80
2023-01-20T01:07:08.070Z,154.67
2023-01-20T01:08:08.059Z,152.78
2023-01-20T01:09:08.038Z,153.42
2023-01-20T01:10:08.016Z,154.17
2023-01-20T01:11:08.001Z,153.28
2023-01-20T01:12:07.977Z,153.01
2023-01-20T01:13:08.012Z,153.61
2023-01-20T01:14:07.957Z,154.15
2023-01-20T01:15:07.931Z,153.31
2023-01-20T01:16:07.943Z,156.39
2023-01-20T01:17:07.886Z,152.59
2023-01-20T01:18:07.858Z,152.44
2023-01-20T01:19:07.854Z,152.80
2023-01-20T01:20:07.857Z,152.79
2023-01-20T01:21:07.793Z,153.15
2023-01-20T01:22:07.781Z,156.73
2023-01-20T01:23:07.743Z,154.98
2023-01-20T01:24:07.729Z,154.02
2023-01-20T01:25:07.712Z,151.05
2023-01-20T01:26:07.699Z,152.03
2023-01-20T01:27:07.667Z,154.56
2023-01-20T01:28:07.657Z,153.63
2023-01-20T01:29:07.649Z,153.59
2023-01-20T01:30:07.622Z,154.44
2023-01-20T01:31:07.656Z,151.26
2023-01-20T01:32:07.587Z,152.61
2023-01-20T01:33:07.561Z,151.99
2023-01-20T01:34:07.557Z,151.28
2023-01-20T01:35:07.520Z,153.13
2023-01-20T01:36:07.499Z,152.78
2023-01-20T01:37:07.471Z,152.35
2023-01-20T01:38:07.476Z,153.44
2023-01-20T01:39:07.439Z,154.83
2023-01-20T01:40:07.418Z,149.93
2023-01-20T01:41:07.409Z,151.48
2023-01-20T01:42:07.407Z,151.47
2023-01-20T01:43:07.380Z,152.60
2023-01-20T01:44:07.361Z,151.67
2023-01-20T01:45:07.352Z,153.73
2023-01-20T01:46:07.393Z,151.76
2023-01-20T01:47:07.309Z,151.98
2023-01-20T01:48:07.322Z,152.03
2023-01-20T01:49:07.282Z,151.83
2023-01-20T01:50:07.268Z,153.67
2023-01-20T01:51:07.248Z,154.98
2023-01-20T01:52:07.231Z,154.02
2023-01-20T01:53:07.227Z,153.47
2023-01-20T01:54:07.232Z,151.64
2023-01-20T01:55:07.191Z,149.99
2023-01-20T01:56:07.252Z,154.68
2023-01-20T01:57:07.165Z,152.01
2023-01-20T01:58:07.172Z,157.08
2023-01-20T01:59:07.139Z,152.71
2023-01-20T02:00:07.128Z,151.48
2023-01-20T02:01:07.175Z,150.76
2023-01-20T02:02:07.149Z,151.30
2023-01-20T02:03:07.114Z,148.92
2023-01-20T02:04:07.082Z,150.83
2023-01-20T02:05:07.059Z,151.59
2023-01-20T02:06:07.049Z,150.45
2023-01-20T02:07:07.008Z,149.80
2023-01-20T02:08:07.020Z,153.42
2023-01-20T02:09:06.985Z,150.13
2023-01-20T02:10:06.985Z,152.82
2023-01-20T02:11:06.953Z,151.34
2023-01-20T02:12:06.953Z,151.28
2023-01-20T02:13:06.907Z,151.54
2023-01-20T02:14:06.913Z,154.92
2023-01-20T02:15:06.887Z,151.26
2023-01-20T02:16:06.918Z,152.36
2023-01-20T02:17:06.865Z,150.16
2023-01-20T02:18:06.853Z,153.37
2023-01-20T02:19:06.823Z,151.49
2023-01-20T02:20:06.815Z,151.38
2023-01-20T02:21:06.827Z,150.48
2023-01-20T02:22:06.771Z,152.77
2023-01-20T02:23:06.760Z,149.14
2023-01-20T02:24:06.742Z,153.40
2023-01-20T02:25:07.238Z,152.34
2023-01-20T02:26:06.706Z,152.10
2023-01-20T02:27:06.695Z,150.91
2023-01-20T02:28:06.671Z,148.83
2023-01-20T02:29:06.656Z,152.27
2023-01-20T02:30:06.656Z,148.27
2023-01-20T02:31:06.617Z,152.38
2023-01-20T02:32:06.612Z,151.84
2023-01-20T02:33:06.615Z,149.95
2023-01-20T02:34:06.567Z,153.15
2023-01-20T02:35:06.550Z,150.48
2023-01-20T02:36:06.573Z,150.24
2023-01-20T02:37:06.511Z,146.91
2023-01-20T02:38:06.495Z,149.00
2023-01-20T02:39:06.473Z,150.76
2023-01-20T02:40:06.487Z,148.87
2023-01-20T02:41:06.460Z,148.46
2023-01-20T02:42:06.417Z,148.82
2023-01-20T02:43:06.405Z,148.95
2023-01-20T02:44:06.380Z,151.08
2023-01-20T02:45:06.380Z,149.85
2023-01-20T02:46:06.371Z,150.22
2023-01-20T02:47:06.320Z,149.14
2023-01-20T02:48:06.304Z,150.24
2023-01-20T02:49:06.269Z,148.94
2023-01-20T02:50:06.260Z,148.23
2023-01-20T02:51:06.229Z,148.66
2023-01-20T02:52:06.236Z,149.23
2023-01-20T02:53:06.188Z,151.98
2023-01-20T02:54:06.170Z,147.57
2023-01-20T02:55:06.147Z,152.05
2023-01-20T02:56:06.130Z,147.94
2023-01-20T02:57:06.103Z,149.79
2023-01-20T02:58:06.085Z,149.86
2023-01-20T02:59:06.070Z,150.18
2023-01-20T03:00:06.042Z,146.55
2023-01-20T03:01:06.091Z,148.23
2023-01-20T03:02:06.129Z,150.37
2023-01-20T03:03:05.990Z,149.10
2023-01-20T03:04:06.033Z,150.78
2023-01-20T03:05:05.952Z,150.24
2023-01-20T03:06:05.941Z,147.71
2023-01-20T03:07:05.913Z,146.02
2023-01-20T03:08:05.896Z,147.29
2023-01-20T03:09:05.880Z,145.14
2023-01-20T03:10:05.940Z,150.08
2023-01-20T03:11:05.854Z,146.48
2023-01-20T03:12:05.820Z,148.96
2023-01-20T03:13:05.792Z,148.12
2023-01-20T03:14:05.805Z,147.40
2023-01-20T03:15:05.762Z,148.30
2023-01-20T03:16:05.774Z,151.13
2023-01-20T03:17:05.762Z,145.42
2023-01-20T03:18:06.244Z,148.30
2023-01-20T03:19:05.758Z,148.87
2023-01-20T03:20:05.768Z,147.20
2023-01-20T03:21:05.738Z,147.07
2023-01-20T03:22:05.701Z,145.13
2023-01-20T03:23:05.701Z,148.01
2023-01-20T03:24:05.747Z,148.28
2023-01-20T03:25:05.639Z,147.80
2023-01-20T03:26:05.589Z,145.55
2023-01-20T03:27:05.567Z,148.42
2023-01-20T03:28:05.560Z,144.71
2023-01-20T03:29:05.532Z,144.60
2023-01-20T03:30:05.524Z,147.52
2023-01-20T03:31:05.599Z,146.41
2023-01-20T03:32:05.502Z,144.47
2023-01-20T03:33:05.454Z,144.58
2023-01-20T03:34:05.444Z,147.72
2023-01-20T03:35:05.429Z,146.97
2023-01-20T03:36:05.424Z,145.63
2023-01-20T03:37:05.391Z,147.33
2023-01-20T03:38:05.385Z,146.46
2023-01-20T03:39:05.360Z,144.84
2023-01-20T03:40:05.347Z,146.19
2023-01-20T03:41:05.334Z,146.51
2023-01-20T03:42:05.300Z,146.73
2023-01-20T03:43:05.276Z,146.08
2023-01-20T03:44:05.257Z,146.68
2023-01-20T03:45:05.239Z,147.64
2023-01-20T03:46:05.306Z,148.76
2023-01-20T03:47:05.221Z,145.92
2023-01-20T03:48:05.174Z,146.01
2023-01-20T03:49:05.148Z,147.45
2023-01-20T03:50:05.184Z,144.11
2023-01-20T03:51:05.098Z,148.39
2023-01-20T03:52:05.100Z,146.53
2023-01-20T03:53:05.053Z,145.12
2023-01-20T03:54:05.042Z,142.53
2023-01-20T03:55:05.015Z,146.01
2023-01-20T03:56:05.007Z,145.40
2023-01-20T03:57:04.978Z,146.67
2023-01-20T03:58:05.015Z,145.87
2023-01-20T03:59:04.945Z,142.42
2023-01-20T04:00:04.930Z,145.74
2023-01-20T04:01:08.897Z,142.77
2023-01-20T04:02:06.490Z,142.95
2023-01-20T04:03:04.900Z,143.49
2023-01-20T04:04:04.847Z,144.57
2023-01-20T04:05:04.832Z,142.44
2023-01-20T04:06:04.811Z,144.21
2023-01-20T04:07:04.782Z,146.97
2023-01-20T04:08:04.753Z,142.32
2023-01-20T04:09:04.756Z,144.86
2023-01-20T04:10:04.719Z,143.70
2023-01-20T04:11:04.696Z,144.37
2023-01-20T04:12:04.669Z,141.44
2023-01-20T04:13:04.647Z,146.33
2023-01-20T04:14:04.639Z,146.02
2023-01-20T04:15:04.595Z,143.38
2023-01-20T04:16:04.608Z,142.45
2023-01-20T04:17:04.564Z,144.00
2023-01-20T04:18:04.537Z,146.06
2023-01-20T04:19:04.509Z,143.60
2023-01-20T04:20:04.531Z,140.70
2023-01-20T04:21:04.465Z,144.29
2023-01-20T04:22:04.460Z,139.12
2023-01-20T04:23:04.438Z,142.48
2023-01-20T04:24:04.405Z,140.78
2023-01-20T04:25:04.389Z,143.78
2023-01-20T04:26:04.380Z,139.59
2023-01-20T04:27:04.344Z,144.33
2023-01-20T04:28:04.338Z,144.53
2023-01-20T04:29:04.318Z,144.49
2023-01-20T04:30:04.275Z,142.99
2023-01-20T04:31:04.316Z,143.98
2023-01-20T04:32:04.345Z,143.56
2023-01-20T04:33:04.214Z,142.87
2023-01-20T04:34:04.183Z,142.83
2023-01-20T04:35:04.159Z,144.83
2023-01-20T04:36:04.161Z,144.99
2023-01-20T04:37:04.141Z,145.94
2023-01-20T04:38:04.119Z,141.52
2023-01-20T04:39:04.087Z,140.10
2023-01-20T04:40:04.052Z,144.31
2023-01-20T04:41:04.076Z,141.30
2023-01-20T04:42:04.009Z,141.72
2023-01-20T04:43:03.991Z,141.49
2023-01-20T04:44:03.971Z,140.22
2023-01-20T04:45:03.943Z,139.05
2023-01-20T04:46:03.957Z,139.46
2023-01-20T04:47:03.891Z,139.90
2023-01-20T04:48:03.876Z,140.64
2023-01-20T04:49:03.866Z,140.53
2023-01-20T04:50:03.825Z,140.49
2023-01-20T04:51:03.833Z,142.90
2023-01-20T04:52:03.792Z,142.12
2023-01-20T04:53:03.766Z,140.74
2023-01-20T04:54:03.759Z,144.89
2023-01-20T04:55:03.719Z,142.42
2023-01-20T04:56:03.704Z,141.04
2023-01-20T04:57:03.685Z,143.12
2023-01-20T04:58:03.671Z,139.17
2023-01-20T04:59:03.646Z,139.45
2023-01-20T05:00:03.655Z,140.85
2023-01-20T05:01:03.608Z,140.86
2023-01-20T05:02:03.628Z,140.69
2023-01-20T05:03:03.606Z,139.44
2023-01-20T05:04:03.527Z,141.94
2023-01-20T05:05:03.524Z,141.11
2023-01-20T05:06:03.496Z,139.86
2023-01-20T05:07:03.466Z,140.75
2023-01-20T05:08:03.439Z,140.07
2023-01-20T05:09:03.416Z,138.98
2023-01-20T05:10:03.380Z,140.81
2023-01-20T05:11:03.368Z,139.09
2023-01-20T05:12:03.350Z,139.11
2023-01-20T05:13:03.363Z,139.73
2023-01-20T05:14:03.294Z,137.48
2023-01-20T05:15:03.266Z,135.03
2023-01-20T05:16:03.356Z,135.37
2023-01-20T05:17:03.215Z,135.51
2023-01-20T05:18:03.198Z,137.03
2023-01-20T05:19:03.173Z,138.09
2023-01-20T05:20:03.147Z,138.39
2023-01-20T05:21:03.181Z,138.00
2023-01-20T05:22:03.137Z,138.47
2023-01-20T05:23:03.092Z,138.49
2023-01-20T05:24:03.073Z,137.03
2023-01-20T05:25:03.039Z,139.68
2023-01-20T05:26:03.038Z,138.58
2023-01-20T05:27:02.999Z,141.56
2023-01-20T05:28:02.987Z,136.88
2023-01-20T05:29:02.954Z,138.67
2023-01-20T05:30:02.943Z,136.86
2023-01-20T05:31:03.053Z,140.26
2023-01-20T05:32:02.880Z,139.16
2023-01-20T05:33:02.850Z,138.50
2023-01-20T05:34:02.842Z,135.19
2023-01-20T05:35:02.805Z,137.36
2023-01-20T05:36:02.787Z,135.10
2023-01-20T05:37:02.784Z,139.38
2023-01-20T05:38:02.726Z,136.10
2023-01-20T05:39:02.716Z,135.02
2023-01-20T05:40:02.681Z,136.11
2023-01-20T05:41:02.642Z,136.69
2023-01-20T05:42:02.613Z,136.90
2023-01-20T05:43:02.601Z,134.30
2023-01-20T05:44:02.561Z,134.70
2023-01-20T05:45:02.532Z,138.26
2023-01-20T05:46:02.544Z,133.40
2023-01-20T05:47:02.486Z,135.57
2023-01-20T05:48:02.461Z,134.95
2023-01-20T05:49:02.445Z,136.93
2023-01-20T05:50:02.405Z,136.60
2023-01-20T05:51:02.402Z,138.26
2023-01-20T05:52:02.366Z,134.56
2023-01-20T05:53:02.348Z,136.06
2023-01-20T05:54:02.335Z,134.69
2023-01-20T05:55:02.319Z,134.59
2023-01-20T05:56:02.323Z,133.59
2023-01-20T05:57:02.266Z,136.57
2023-01-20T05:58:02.242Z,136.20
2023-01-20T05:59:02.214Z,133.85
2023-01-20T06:00:02.175Z,130.58
2023-01-20T06:01:02.187Z,134.52
2023-01-20T06:02:02.131Z,132.66
2023-01-20T06:03:02.160Z,133.22
2023-01-20T06:04:02.092Z,134.58
2023-01-20T06:05:02.043Z,132.54
2023-01-20T06:06:02.018Z,134.11
2023-01-20T06:07:01.979Z,132.82
2023-01-20T06:08:01.985Z,130.95
2023-01-20T06:09:01.942Z,133.65
2023-01-20T06:10:01.890Z,133.22
2023-01-20T06:11:01.892Z,136.23
2023-01-20T06:12:01.842Z,133.12
2023-01-20T06:13:01.813Z,133.01
2023-01-20T06:14:01.801Z,131.99
2023-01-20T06:15:01.753Z,132.39
2023-01-20T06:16:01.747Z,130.71
2023-01-20T06:17:01.717Z,132.93
2023-01-20T06:18:01.661Z,127.65
2023-01-20T06:19:01.656Z,127.55
2023-01-20T06:20:01.649Z,126.69
2023-01-20T06:21:01.584Z,122.75
2023-01-20T06:22:01.571Z,122.23
2023-01-20T06:23:01.545Z,121.06
2023-01-20T06:24:01.548Z,119.80
2023-01-20T06:25:01.549Z,120.20
2023-01-20T06:26:01.532Z,115.55
2023-01-20T06:27:01.463Z,116.49
2023-01-20T06:28:01.424Z,115.20
2023-01-20T06:29:01.416Z,111.77
2023-01-20T06:30:01.383Z,108.90
2023-01-20T06:31:01.451Z,109.03
2023-01-20T06:32:01.367Z,113.05
2023-01-20T06:33:01.297Z,109.56
2023-01-20T06:34:01.315Z,114.97
2023-01-20T06:35:01.259Z,115.33
2023-01-20T06:36:01.227Z,114.38
2023-01-20T06:37:01.207Z,115.05
2023-01-20T06:38:01.179Z,119.77
2023-01-20T06:39:01.175Z,141.99
2023-01-20T06:40:01.136Z,148.34
2023-01-20T06:41:01.125Z,144.10
2023-01-20T06:42:01.120Z,144.17
2023-01-20T06:43:01.068Z,140.97
2023-01-20T06:44:01.048Z,142.12
2023-01-20T06:45:01.027Z,129.17
2023-01-20T06:46:00.991Z,125.98
2023-01-20T06:47:00.963Z,125.96
2023-01-20T06:48:00.936Z,98.64
2023-01-20T06:49:00.968Z,110.69
2023-01-20T06:50:00.885Z,127.52
2023-01-20T06:51:00.922Z,124.68
2023-01-20T06:52:00.848Z,121.94
2023-01-20T06:53:00.815Z,122.28
2023-01-20T06:54:00.778Z,122.48
2023-01-20T06:55:00.755Z,122.04
2023-01-20T06:56:00.751Z,126.11
2023-01-20T06:57:00.708Z,129.89
2023-01-20T06:58:00.675Z,129.78
2023-01-20T06:59:00.645Z,125.77
2023-01-20T07:00:00.661Z,128.37
2023-01-20T07:01:00.790Z,128.62
2023-01-20T07:02:00.690Z,122.40
2023-01-20T07:03:00.567Z,118.73
2023-01-20T07:04:00.511Z,119.67
2023-01-20T07:05:00.464Z,104.22
2023-01-20T07:06:00.455Z,105.20
2023-01-20T07:07:00.426Z,106.14
2023-01-20T07:08:00.393Z,104.57
2023-01-20T07:09:00.375Z,102.41
2023-01-20T07:10:00.336Z,100.67
2023-01-20T07:11:00.308Z,97.99
2023-01-20T07:12:00.272Z,96.16
2023-01-20T07:13:00.247Z,93.13
2023-01-20T07:14:00.205Z,91.09
2023-01-20T07:15:00.174Z,88.66
2023-01-20T07:16:00.220Z,85.75
2023-01-20T07:17:00.118Z,81.17
2023-01-20T07:18:00.110Z,82.99
2023-01-20T07:19:00.070Z,82.67
2023-01-20T07:20:00.115Z,81.34
2023-01-20T07:20:59.973Z,76.67
2023-01-20T07:21:59.943Z,77.32
2023-01-20T07:22:59.938Z,76.62
2023-01-20T07:23:59.878Z,80.04
2023-01-20T07:24:59.880Z,83.49
2023-01-20T07:25:59.837Z,84.86
2023-01-20T07:26:59.792Z,87.78
2023-01-20T07:27:59.769Z,91.15
2023-01-20T07:28:59.760Z,96.20
2023-01-20T07:29:59.710Z,102.15
2023-01-20T07:30:59.703Z,105.14
2023-01-20T07:31:59.717Z,102.83
2023-01-20T07:32:59.628Z,109.65
2023-01-20T07:34:00.609Z,110.44
2023-01-20T07:34:59.553Z,109.65
2023-01-20T07:35:59.522Z,119.28
2023-01-20T07:36:59.496Z,118.85
2023-01-20T07:37:59.597Z,118.84
2023-01-20T07:38:59.436Z,122.68
2023-01-20T07:39:59.389Z,130.62
2023-01-20T07:40:59.399Z,124.24
2023-01-20T07:41:59.339Z,120.45
2023-01-20T07:42:59.286Z,122.45
2023-01-20T07:43:59.271Z,123.38
2023-01-20T07:44:59.221Z,122.78
2023-01-20T07:45:59.257Z,123.10
2023-01-20T07:46:59.161Z,123.53
2023-01-20T07:47:59.112Z,126.71
2023-01-20T07:48:59.075Z,127.21
2023-01-20T07:49:59.035Z,126.73
2023-01-20T07:50:59.009Z,123.83
2023-01-20T07:51:58.968Z,103.76
2023-01-20T07:52:58.933Z,106.35
2023-01-20T07:53:58.876Z,111.67
2023-01-20T07:54:58.845Z,107.29
2023-01-20T07:55:58.816Z,110.71
2023-01-20T07:56:58.778Z,103.73
2023-01-20T07:57:58.762Z,96.50
2023-01-20T07:58:58.720Z,80.92
2023-01-20T07:59:58.677Z,79.16
2023-01-20T08:00:58.667Z,77.61
2023-01-20T08:01:58.651Z,85.37
2023-01-20T08:02:58.577Z,84.78
2023-01-20T08:03:58.517Z,77.03
2023-01-20T08:04:58.528Z,67.72
2023-01-20T08:05:58.456Z,57.97
2023-01-20T08:06:58.417Z,64.84
2023-01-20T08:07:58.423Z,70.39
2023-01-20T08:08:58.918Z,67.41
2023-01-20T08:09:58.320Z,59.59
2023-01-20T08:10:58.359Z,55.74
2023-01-20T08:11:58.251Z,44.85
2023-01-20T08:12:58.218Z,52.00
2023-01-20T08:13:58.209Z,57.08
2023-01-20T08:14:58.149Z,57.18
2023-01-20T08:15:58.197Z,57.34
2023-01-20T08:16:58.117Z,50.05
2023-01-20T08:17:58.056Z,39.51
2023-01-20T08:18:58.024Z,37.87
2023-01-20T08:19:57.982Z,54.59
2023-01-20T08:20:58.546Z,53.38
2023-01-20T08:21:57.930Z,57.08
2023-01-20T08:22:57.888Z,43.13
2023-01-20T08:23:57.864Z,29.74
2023-01-20T08:24:57.833Z,32.27
2023-01-20T08:25:57.820Z,40.03
2023-01-20T08:26:57.763Z,45.26
2023-01-20T08:27:57.731Z,44.87
2023-01-20T08:28:57.711Z,41.36
2023-01-20T08:29:57.679Z,30.54
2023-01-20T08:30:57.707Z,16.39
2023-01-20T08:31:57.600Z,20.99
2023-01-20T08:32:57.575Z,29.79
2023-01-20T08:33:57.556Z,34.40
2023-01-20T08:34:57.504Z,27.60
2023-01-20T08:35:57.507Z,24.34
2023-01-20T08:36:57.482Z,58.11
2023-01-20T08:37:57.431Z,49.45
2023-01-20T08:38:57.396Z,41.60
2023-01-20T08:39:57.353Z,42.41
2023-01-20T08:40:57.318Z,58.40
2023-01-20T08:41:57.283Z,63.12
2023-01-20T08:42:57.246Z,40.87
2023-01-20T08:43:57.231Z,38.93
2023-01-20T08:44:57.182Z,47.82
2023-01-20T08:45:57.194Z,37.78
2023-01-20T08:46:57.130Z,53.66
2023-01-20T08:47:57.086Z,54.04
2023-01-20T08:48:57.069Z,51.34
2023-01-20T08:49:57.035Z,45.46
2023-01-20T08:50:57.062Z,51.57
2023-01-20T08:51:56.960Z,51.95
2023-01-20T08:52:56.916Z,37.33
2023-01-20T08:53:56.865Z,37.89
2023-01-20T08:54:56.838Z,37.77
2023-01-20T08:55:56.798Z,29.39
2023-01-20T08:56:56.770Z,30.98
2023-01-20T08:57:56.736Z,36.94
2023-01-20T08:58:56.697Z,42.75
2023-01-20T08:59:56.678Z,48.45
2023-01-20T09:00:56.698Z,35.66
2023-01-20T09:01:56.606Z,25.00
2023-01-20T09:02:56.751Z,26.22
2023-01-20T09:04:05.461Z,34.60
2023-01-20T09:04:57.829Z,27.18
2023-01-20T09:05:56.726Z,35.67
2023-01-20T09:06:56.486Z,36.38
2023-01-20T09:07:56.409Z,32.01
2023-01-20T09:08:56.374Z,31.91
2023-01-20T09:09:56.342Z,28.39
2023-01-20T09:10:56.301Z,26.12
2023-01-20T09:11:56.257Z,30.98
2023-01-20T09:12:56.221Z,23.46
2023-01-20T09:13:56.187Z,26.61
2023-01-20T09:14:56.144Z,25.95
2023-01-20T09:15:56.180Z,30.37
2023-01-20T09:16:56.065Z,30.70
2023-01-20T09:17:56.021Z,29.83
2023-01-20T09:18:55.982Z,33.10
2023-01-20T09:19:55.949Z,37.46
2023-01-20T09:20:55.909Z,39.03
2023-01-20T09:21:55.886Z,39.58
2023-01-20T09:22:55.849Z,39.89
2023-01-20T09:23:55.822Z,49.36
2023-01-20T09:24:55.765Z,56.91
2023-01-20T09:25:55.733Z,61.38
2023-01-20T09:26:55.686Z,68.55
2023-01-20T09:27:55.651Z,72.48
2023-01-20T09:28:55.910Z,78.74
2023-01-20T09:29:55.577Z,82.23
2023-01-20T09:30:55.650Z,78.34
2023-01-20T09:31:55.628Z,68.85
2023-01-20T09:32:55.457Z,76.39
2023-01-20T09:33:55.422Z,73.99
2023-01-20T09:34:55.380Z,77.68
2023-01-20T09:35:55.343Z,77.40
2023-01-20T09:36:55.514Z,78.67
2023-01-20T09:37:55.257Z,74.84
2023-01-20T09:38:55.227Z,70.43
2023-01-20T09:39:55.192Z,51.03
2023-01-20T09:40:55.157Z,55.74
2023-01-20T09:41:55.129Z,55.52
2023-01-20T09:42:55.111Z,44.38
2023-01-20T09:43:55.047Z,44.82
2023-01-20T09:44:55.006Z,45.13
2023-01-20T09:45:54.978Z,45.39
2023-01-20T09:46:54.968Z,46.00
2023-01-20T09:47:54.951Z,42.67
2023-01-20T09:48:54.867Z,40.54
2023-01-20T09:49:54.830Z,44.45
2023-01-20T09:50:54.768Z,38.93
2023-01-20T09:51:54.740Z,39.79
2023-01-20T09:52:54.705Z,27.47
2023-01-20T09:53:54.645Z,31.39
2023-01-20T09:54:54.606Z,31.56
2023-01-20T09:55:54.613Z,32.04
2023-01-20T09:56:54.556Z,32.06
2023-01-20T09:57:54.502Z,32.39
2023-01-20T09:58:54.487Z,28.20
2023-01-20T09:59:54.428Z,10.36
2023-01-20T10:00:54.389Z,18.80
2023-01-20T10:01:54.430Z,27.10
2023-01-20T10:02:54.309Z,29.93
2023-01-20T10:03:54.280Z,30.70
2023-01-20T10:04:54.220Z,37.98
2023-01-20T10:05:54.186Z,30.95
2023-01-20T10:06:54.161Z,26.86
2023-01-20T10:07:54.118Z,25.82
2023-01-20T10:09:04.923Z,26.08
2023-01-20T10:09:55.051Z,26.21
2023-01-20T10:10:54.017Z,27.10
2023-01-20T10:11:53.947Z,29.44
2023-01-20T10:12:53.938Z,32.69
2023-01-20T10:13:53.906Z,37.12
2023-01-20T10:14:55.343Z,26.79
2023-01-20T10:15:53.816Z,25.15
2023-01-20T10:16:53.748Z,28.82
2023-01-20T10:17:53.730Z,30.52
2023-01-20T10:18:53.673Z,25.00
2023-01-20T10:19:53.628Z,29.56
2023-01-20T10:20:53.594Z,31.98
2023-01-20T10:21:53.558Z,38.75
2023-01-20T10:22:53.509Z,41.36
2023-01-20T10:23:53.478Z,41.67
2023-01-20T10:24:53.422Z,41.58
2023-01-20T10:25:53.396Z,31.73
2023-01-20T10:26:53.349Z,33.18
2023-01-20T10:27:53.299Z,31.58
2023-01-20T10:28:53.306Z,27.59
2023-01-20T10:29:53.219Z,25.00
2023-01-20T10:30:53.451Z,27.17
2023-01-20T10:31:53.334Z,27.54
2023-01-20T10:32:53.098Z,27.68
2023-01-20T10:33:53.082Z,33.16
2023-01-20T10:34:54.922Z,33.23
2023-01-20T10:35:53.157Z,30.09
2023-01-20T10:36:52.957Z,21.11
2023-01-20T10:37:52.915Z,25.12
2023-01-20T10:38:52.865Z,0.00
2023-01-20T10:39:52.823Z,14.74
2023-01-20T10:40:52.950Z,0.00
2023-01-20T10:41:52.742Z,0.00
2023-01-20T10:42:52.708Z,0.00
2023-01-20T10:43:52.684Z,0.00
2023-01-20T10:44:52.661Z,0.00
2023-01-20T10:45:52.588Z,0.00
2023-01-20T10:46:52.710Z,0.00
2023-01-20T10:47:52.540Z,0.00
2023-01-20T10:48:52.479Z,25.81
2023-01-20T10:49:52.458Z,32.22
2023-01-20T10:50:52.425Z,43.10
2023-01-20T10:51:52.371Z,77.11
2023-01-20T10:52:52.349Z,0.00
2023-01-20T10:53:52.322Z,0.00
2023-01-20T10:54:52.257Z,0.00
2023-01-20T10:55:52.225Z,0.00
2023-01-20T10:56:52.185Z,0.00
2023-01-20T10:57:54.519Z,0.00
2023-01-20T10:58:52.189Z,19.68
2023-01-20T10:59:52.141Z,40.03
2023-01-20T11:00:52.120Z,73.09
2023-01-20T11:01:59.459Z,90.17
2023-01-20T11:02:53.090Z,90.83
2023-01-20T11:03:52.000Z,96.18
2023-01-20T11:04:51.963Z,105.56
2023-01-20T11:05:51.937Z,122.04
2023-01-20T11:06:51.871Z,135.44
2023-01-20T11:07:51.833Z,157.52
2023-01-20T11:08:51.802Z,166.22
2023-01-20T11:09:51.777Z,166.90
2023-01-20T11:10:51.717Z,169.45
2023-01-20T11:11:51.675Z,174.87
2023-01-20T11:12:51.652Z,186.17
2023-01-20T11:13:51.606Z,186.19
2023-01-20T11:14:51.555Z,199.92
2023-01-20T11:15:51.555Z,199.64
2023-01-20T11:16:51.470Z,196.80
2023-01-20T11:17:51.437Z,203.35
2023-01-20T11:18:51.398Z,210.72
2023-01-20T11:19:51.353Z,217.13
2023-01-20T11:20:51.307Z,219.20
2023-01-20T11:21:51.272Z,219.45
2023-01-20T11:22:51.241Z,220.14
2023-01-20T11:23:51.218Z,219.59
2023-01-20T11:24:51.150Z,219.74
2023-01-20T11:25:51.129Z,220.50
2023-01-20T11:26:51.090Z,229.21
2023-01-20T11:27:51.063Z,230.22
2023-01-20T11:28:51.050Z,234.18
2023-01-20T11:29:51.046Z,223.88
2023-01-20T11:30:50.975Z,230.65
2023-01-20T11:31:50.938Z,223.65
2023-01-20T11:32:50.847Z,227.83
2023-01-20T11:33:50.814Z,222.25
2023-01-20T11:34:50.789Z,228.66
2023-01-20T11:35:50.730Z,228.08
2023-01-20T11:36:50.819Z,228.16
2023-01-20T11:37:50.671Z,230.07
2023-01-20T11:38:50.607Z,229.47
2023-01-20T11:39:50.576Z,243.15
2023-01-20T11:40:50.521Z,257.17
2023-01-20T11:41:50.487Z,250.00
2023-01-20T11:42:50.443Z,233.99
2023-01-20T11:43:50.567Z,226.19
2023-01-20T11:44:50.418Z,238.03
2023-01-20T11:45:50.327Z,236.11
2023-01-20T11:46:50.311Z,230.69
2023-01-20T11:47:50.229Z,231.63
2023-01-20T11:48:50.206Z,210.51
2023-01-20T11:49:50.150Z,234.35
2023-01-20T11:50:50.131Z,233.00
2023-01-20T11:51:50.103Z,223.62
2023-01-20T11:52:50.026Z,208.61
2023-01-20T11:53:49.976Z,194.11
2023-01-20T11:54:49.939Z,195.72
2023-01-20T11:55:49.882Z,214.63
2023-01-20T11:56:49.840Z,198.68
2023-01-20T11:57:49.814Z,225.28
2023-01-20T11:58:49.750Z,225.20
2023-01-20T11:59:49.727Z,216.42
2023-01-20T12:00:49.663Z,190.31
2023-01-20T12:01:49.683Z,212.23
2023-01-20T12:02:49.591Z,220.29
2023-01-20T12:03:49.614Z,230.82
2023-01-20T12:04:49.506Z,224.29
2023-01-20T12:05:49.474Z,221.80
2023-01-20T12:06:49.406Z,216.62
2023-01-20T12:07:49.362Z,200.25
2023-01-20T12:08:49.323Z,212.85
2023-01-20T12:09:49.952Z,205.18
2023-01-20T12:10:49.253Z,200.35
2023-01-20T12:11:49.228Z,199.88
2023-01-20T12:12:49.126Z,220.22
2023-01-20T12:13:49.079Z,213.88
2023-01-20T12:14:49.045Z,218.29
2023-01-20T12:15:49.000Z,182.32
2023-01-20T12:16:49.032Z,195.33
2023-01-20T12:17:49.209Z,185.94
2023-01-20T12:19:01.351Z,186.51
2023-01-20T12:19:49.817Z,184.02
2023-01-20T12:20:54.814Z,188.30
2023-01-20T12:21:49.745Z,187.17
2023-01-20T12:22:48.673Z,190.07
2023-01-20T12:23:48.629Z,192.85
2023-01-20T12:24:48.567Z,199.42
2023-01-20T12:25:48.527Z,193.21
2023-01-20T12:26:48.470Z,187.70
2023-01-20T12:27:48.430Z,191.68
2023-01-20T12:28:48.427Z,185.87
2023-01-20T12:29:48.354Z,138.12
2023-01-20T12:30:48.334Z,177.03
2023-01-20T12:31:48.289Z,176.01
2023-01-20T12:32:48.183Z,181.62
2023-01-20T12:33:48.169Z,174.24
2023-01-20T12:34:48.090Z,176.69